createdAt,value
2024-02-08T00:00:14.558Z,21.31
2024-02-08T00:00:46.113Z,21.29
2024-02-08T00:01:17.787Z,21.29
2024-02-08T00:01:49.320Z,21.29
2024-02-08T00:02:20.874Z,21.29
2024-02-08T00:02:52.420Z,21.27
2024-02-08T00:03:23.947Z,21.28
2024-02-08T00:03:55.648Z,21.28
2024-02-08T00:04:27.232Z,21.29
2024-02-08T00:04:58.943Z,21.28
2024-02-08T00:05:30.568Z,21.28
2024-02-08T00:06:02.118Z,21.29
2024-02-08T00:06:33.761Z,21.29
2024-02-08T00:07:05.346Z,21.29
2024-02-08T00:07:37.004Z,21.29
2024-02-08T00:08:08.558Z,21.28
2024-02-08T00:08:40.074Z,21.27
2024-02-08T00:09:14.088Z,21.26
2024-02-08T00:09:45.613Z,21.26
2024-02-08T00:10:17.097Z,21.27
2024-02-08T00:10:51.104Z,21.27
2024-02-08T00:11:22.661Z,21.27
2024-02-08T00:11:54.104Z,21.27
2024-02-08T00:12:25.584Z,21.27
2024-02-08T00:12:57.041Z,21.28
2024-02-08T00:13:31.034Z,21.28
2024-02-08T00:14:03.737Z,21.29
2024-02-08T00:14:35.342Z,21.28
2024-02-08T00:15:06.914Z,21.29
2024-02-08T00:15:38.464Z,21.27
2024-02-08T00:16:09.994Z,21.26
2024-02-08T00:16:41.469Z,21.27
2024-02-08T00:17:12.966Z,21.26
2024-02-08T00:17:44.642Z,21.27
2024-02-08T00:18:16.325Z,21.27
2024-02-08T00:18:48.032Z,21.26
2024-02-08T00:19:19.791Z,21.27
2024-02-08T00:19:51.427Z,21.27
2024-02-08T00:20:22.898Z,21.27
2024-02-08T00:20:54.402Z,21.26
2024-02-08T00:21:25.932Z,21.27
2024-02-08T00:21:57.410Z,21.27
2024-02-08T00:22:28.928Z,21.27
2024-02-08T00:23:00.534Z,21.27
2024-02-08T00:23:32.103Z,21.28
2024-02-08T00:24:03.685Z,21.28
2024-02-08T00:24:35.108Z,21.27
2024-02-08T00:25:06.584Z,21.27
2024-02-08T00:25:38.168Z,21.26
2024-02-08T00:26:09.769Z,21.25
2024-02-08T00:26:41.396Z,21.24
2024-02-08T00:27:12.893Z,21.26
2024-02-08T00:27:44.372Z,21.24
2024-02-08T00:28:15.876Z,21.24
2024-02-08T00:28:47.472Z,21.23
2024-02-08T00:29:18.984Z,21.24
2024-02-08T00:29:50.462Z,21.24
2024-02-08T00:30:21.939Z,21.25
2024-02-08T00:30:53.377Z,21.25
2024-02-08T00:31:24.917Z,21.24
2024-02-08T00:32:01.043Z,21.23
2024-02-08T00:32:32.703Z,21.23
2024-02-08T00:33:05.167Z,21.24
2024-02-08T00:33:36.688Z,21.23
2024-02-08T00:34:11.086Z,21.23
2024-02-08T00:34:45.635Z,21.24
2024-02-08T00:35:20.194Z,21.23
2024-02-08T00:35:51.693Z,21.24
2024-02-08T00:36:23.181Z,21.24
2024-02-08T00:36:54.595Z,21.24
2024-02-08T00:37:26.145Z,21.23
2024-02-08T00:37:57.737Z,21.23
2024-02-08T00:38:32.537Z,21.24
2024-02-08T00:39:04.133Z,21.24
2024-02-08T00:39:35.668Z,21.24
2024-02-08T00:40:09.772Z,21.25
2024-02-08T00:40:41.291Z,21.24
2024-02-08T00:41:12.950Z,21.25
2024-02-08T00:41:44.520Z,21.25
2024-02-08T00:42:16.045Z,21.26
2024-02-08T00:42:47.616Z,21.27
2024-02-08T00:43:19.225Z,21.27
2024-02-08T00:43:50.828Z,21.27
2024-02-08T00:44:22.379Z,21.28
2024-02-08T00:44:53.864Z,21.29
2024-02-08T00:45:25.438Z,21.28
2024-02-08T00:45:56.882Z,21.28
2024-02-08T00:46:28.425Z,21.29
2024-02-08T00:47:00.028Z,21.28
2024-02-08T00:47:31.669Z,21.27
2024-02-08T00:48:07.744Z,21.28
2024-02-08T00:48:39.227Z,21.29
2024-02-08T00:49:10.895Z,21.28
2024-02-08T00:49:42.523Z,21.27
2024-02-08T00:50:14.123Z,21.26
2024-02-08T00:50:45.585Z,21.27
2024-02-08T00:51:17.063Z,21.25
2024-02-08T00:51:48.631Z,21.26
2024-02-08T00:52:22.298Z,21.24
2024-02-08T00:52:54.007Z,21.24
2024-02-08T00:53:25.516Z,21.24
2024-02-08T00:53:57.000Z,21.25
2024-02-08T00:54:28.473Z,21.26
2024-02-08T00:54:59.942Z,21.25
2024-02-08T00:55:31.515Z,21.24
2024-02-08T00:56:03.059Z,21.24
2024-02-08T00:56:34.561Z,21.25
2024-02-08T00:57:06.033Z,21.23
2024-02-08T00:57:37.492Z,21.23
2024-02-08T00:58:08.943Z,21.24
2024-02-08T00:58:40.420Z,21.25
2024-02-08T00:59:11.943Z,21.24
2024-02-08T00:59:43.407Z,21.23
2024-02-08T01:00:14.894Z,21.21
2024-02-08T01:00:46.459Z,21.22
2024-02-08T01:01:18.082Z,21.23
2024-02-08T01:01:49.615Z,21.24
2024-02-08T01:02:21.102Z,21.23
2024-02-08T01:02:52.536Z,21.23
2024-02-08T01:03:27.065Z,21.23
2024-02-08T01:03:58.623Z,21.23
2024-02-08T01:04:30.314Z,21.23
2024-02-08T01:05:01.860Z,21.23
2024-02-08T01:05:33.713Z,21.24
2024-02-08T01:06:09.940Z,21.24
2024-02-08T01:06:41.449Z,21.24
2024-02-08T01:07:15.118Z,21.24
2024-02-08T01:07:46.709Z,21.24
2024-02-08T01:08:18.229Z,21.24
2024-02-08T01:08:49.735Z,21.25
2024-02-08T01:09:21.225Z,21.24
2024-02-08T01:09:52.719Z,21.24
2024-02-08T01:10:24.436Z,21.24
2024-02-08T01:10:56.020Z,21.24
2024-02-08T01:11:27.488Z,21.24
2024-02-08T01:11:58.927Z,21.24
2024-02-08T01:12:30.377Z,21.25
2024-02-08T01:13:01.883Z,21.24
2024-02-08T01:13:33.384Z,21.24
2024-02-08T01:14:04.917Z,21.25
2024-02-08T01:14:39.358Z,21.25
2024-02-08T01:15:13.611Z,21.25
2024-02-08T01:15:45.080Z,21.25
2024-02-08T01:16:16.564Z,21.24
2024-02-08T01:16:50.886Z,21.23
2024-02-08T01:17:22.399Z,21.21
2024-02-08T01:17:54.079Z,21.21
2024-02-08T01:18:25.654Z,21.19
2024-02-08T01:18:57.257Z,21.21
2024-02-08T01:19:28.898Z,21.20
2024-02-08T01:20:03.698Z,21.21
2024-02-08T01:20:35.504Z,21.21
2024-02-08T01:21:07.108Z,21.20
2024-02-08T01:21:38.990Z,21.23
2024-02-08T01:22:10.493Z,21.21
2024-02-08T01:22:42.020Z,21.22
2024-02-08T01:23:13.690Z,21.21
2024-02-08T01:23:45.253Z,21.23
2024-02-08T01:24:16.756Z,21.24
2024-02-08T01:24:48.259Z,21.23
2024-02-08T01:25:19.797Z,21.23
2024-02-08T01:25:51.440Z,21.23
2024-02-08T01:26:23.128Z,21.23
2024-02-08T01:26:54.638Z,21.23
2024-02-08T01:27:29.257Z,21.23
2024-02-08T01:28:00.850Z,21.23
2024-02-08T01:28:32.300Z,21.23
2024-02-08T01:29:03.913Z,21.24
2024-02-08T01:29:35.463Z,21.24
2024-02-08T01:30:06.935Z,21.23
2024-02-08T01:30:38.444Z,21.22
2024-02-08T01:31:09.915Z,21.21
2024-02-08T01:31:41.420Z,21.22
2024-02-08T01:32:12.944Z,21.24
2024-02-08T01:32:44.535Z,21.24
2024-02-08T01:33:16.146Z,21.24
2024-02-08T01:33:52.326Z,21.25
2024-02-08T01:34:23.981Z,21.24
2024-02-08T01:34:55.585Z,21.24
2024-02-08T01:35:27.293Z,21.23
2024-02-08T01:35:58.894Z,21.23
2024-02-08T01:36:30.382Z,21.23
2024-02-08T01:37:01.823Z,21.23
2024-02-08T01:37:33.356Z,21.23
2024-02-08T01:38:04.951Z,21.23
2024-02-08T01:38:36.453Z,21.24
2024-02-08T01:39:07.936Z,21.23
2024-02-08T01:39:39.432Z,21.23
2024-02-08T01:40:10.937Z,21.23
2024-02-08T01:40:44.491Z,21.24
2024-02-08T01:41:16.039Z,21.25
2024-02-08T01:41:47.582Z,21.25
2024-02-08T01:42:20.280Z,21.26
2024-02-08T01:42:51.873Z,21.26
2024-02-08T01:43:23.378Z,21.26
2024-02-08T01:43:54.946Z,21.26
2024-02-08T01:44:26.492Z,21.25
2024-02-08T01:44:59.196Z,21.26
2024-02-08T01:45:30.674Z,21.24
2024-02-08T01:46:02.291Z,21.24
2024-02-08T01:46:33.832Z,21.24
2024-02-08T01:47:05.432Z,21.23
2024-02-08T01:47:37.089Z,21.23
2024-02-08T01:48:08.725Z,21.22
2024-02-08T01:48:42.900Z,21.21
2024-02-08T01:49:14.530Z,21.23
2024-02-08T01:49:46.080Z,21.21
2024-02-08T01:50:17.536Z,21.22
2024-02-08T01:50:49.070Z,21.23
2024-02-08T01:51:20.529Z,21.22
2024-02-08T01:51:51.977Z,21.22
2024-02-08T01:52:23.706Z,21.23
2024-02-08T01:53:00.895Z,21.23
2024-02-08T01:53:32.490Z,21.24
2024-02-08T01:54:04.112Z,21.24
2024-02-08T01:54:35.593Z,21.23
2024-02-08T01:55:07.034Z,21.24
2024-02-08T01:55:38.528Z,21.24
2024-02-08T01:56:10.200Z,21.23
2024-02-08T01:56:41.795Z,21.25
2024-02-08T01:57:13.270Z,21.25
2024-02-08T01:57:44.751Z,21.25
2024-02-08T01:58:16.216Z,21.25
2024-02-08T01:58:47.705Z,21.23
2024-02-08T01:59:20.483Z,21.25
2024-02-08T01:59:51.968Z,21.24
2024-02-08T02:00:23.440Z,21.24
2024-02-08T02:00:54.950Z,21.23
2024-02-08T02:01:26.590Z,21.23
2024-02-08T02:01:58.098Z,21.23
2024-02-08T02:02:29.630Z,21.23
2024-02-08T02:03:01.188Z,21.24
2024-02-08T02:03:32.742Z,21.23
2024-02-08T02:04:11.731Z,21.23
2024-02-08T02:04:43.293Z,21.22
2024-02-08T02:05:15.097Z,21.23
2024-02-08T02:05:46.639Z,21.24
2024-02-08T02:06:18.247Z,21.24
2024-02-08T02:06:50.026Z,21.23
2024-02-08T02:07:21.653Z,21.22
2024-02-08T02:07:53.233Z,21.23
2024-02-08T02:08:24.750Z,21.23
2024-02-08T02:08:58.064Z,21.24
2024-02-08T02:09:29.550Z,21.24
2024-02-08T02:10:01.086Z,21.25
2024-02-08T02:10:32.620Z,21.24
2024-02-08T02:11:04.150Z,21.24
2024-02-08T02:11:35.913Z,21.23
2024-02-08T02:12:07.444Z,21.25
2024-02-08T02:12:38.977Z,21.24
2024-02-08T02:13:10.446Z,21.24
2024-02-08T02:13:41.919Z,21.23
2024-02-08T02:14:13.479Z,21.22
2024-02-08T02:14:44.930Z,21.21
2024-02-08T02:15:16.437Z,21.21
2024-02-08T02:15:47.976Z,21.20
2024-02-08T02:16:19.427Z,21.21
2024-02-08T02:16:53.481Z,21.22
2024-02-08T02:17:25.066Z,21.21
2024-02-08T02:17:56.661Z,21.23
2024-02-08T02:18:28.258Z,21.21
2024-02-08T02:18:59.760Z,21.22
2024-02-08T02:19:31.363Z,21.21
2024-02-08T02:20:03.022Z,21.23
2024-02-08T02:20:34.610Z,21.22
2024-02-08T02:21:06.178Z,21.21
2024-02-08T02:21:37.725Z,21.21
2024-02-08T02:22:10.371Z,21.21
2024-02-08T02:22:41.845Z,21.22
2024-02-08T02:23:13.337Z,21.22
2024-02-08T02:23:44.929Z,21.22
2024-02-08T02:24:16.486Z,21.23
2024-02-08T02:24:48.018Z,21.22
2024-02-08T02:25:19.477Z,21.24
2024-02-08T02:25:50.998Z,21.23
2024-02-08T02:26:22.484Z,21.22
2024-02-08T02:26:53.955Z,21.23
2024-02-08T02:27:27.009Z,21.23
2024-02-08T02:27:58.445Z,21.23
2024-02-08T02:28:32.532Z,21.22
2024-02-08T02:29:04.111Z,21.22
2024-02-08T02:29:35.596Z,21.21
2024-02-08T02:30:07.154Z,21.21
2024-02-08T02:30:38.655Z,21.21
2024-02-08T02:31:10.159Z,21.21
2024-02-08T02:31:41.652Z,21.23
2024-02-08T02:32:13.201Z,21.23
2024-02-08T02:32:44.810Z,21.25
2024-02-08T02:33:19.297Z,21.26
2024-02-08T02:33:53.000Z,21.25
2024-02-08T02:34:24.562Z,21.27
2024-02-08T02:34:56.204Z,21.27
2024-02-08T02:35:27.759Z,21.27
2024-02-08T02:35:59.305Z,21.27
2024-02-08T02:36:30.797Z,21.27
2024-02-08T02:37:02.297Z,21.27
2024-02-08T02:37:33.826Z,21.27
2024-02-08T02:38:05.534Z,21.25
2024-02-08T02:38:37.128Z,21.24
2024-02-08T02:39:08.719Z,21.24
2024-02-08T02:39:42.753Z,21.25
2024-02-08T02:40:14.196Z,21.24
2024-02-08T02:40:48.526Z,21.24
2024-02-08T02:41:20.096Z,21.23
2024-02-08T02:41:51.735Z,21.24
2024-02-08T02:42:23.146Z,21.24
2024-02-08T02:42:54.667Z,21.24
2024-02-08T02:43:26.185Z,21.24
2024-02-08T02:43:57.786Z,21.23
2024-02-08T02:44:29.250Z,21.23
2024-02-08T02:45:00.715Z,21.24
2024-02-08T02:45:32.148Z,21.23
2024-02-08T02:46:03.659Z,21.23
2024-02-08T02:46:37.941Z,21.23
2024-02-08T02:47:09.518Z,21.23
2024-02-08T02:47:41.075Z,21.23
2024-02-08T02:48:15.818Z,21.24
2024-02-08T02:48:47.409Z,21.24
2024-02-08T02:49:18.980Z,21.23
2024-02-08T02:49:50.551Z,21.24
2024-02-08T02:50:22.085Z,21.24
2024-02-08T02:50:53.552Z,21.25
2024-02-08T02:51:25.035Z,21.25
2024-02-08T02:51:56.503Z,21.26
2024-02-08T02:52:30.765Z,21.27
2024-02-08T02:53:04.204Z,21.28
2024-02-08T02:53:38.489Z,21.28
2024-02-08T02:54:09.945Z,21.29
2024-02-08T02:54:42.324Z,21.29
2024-02-08T02:55:14.092Z,21.29
2024-02-08T02:55:47.543Z,21.29
2024-02-08T02:56:19.115Z,21.29
2024-02-08T02:56:50.639Z,21.28
2024-02-08T02:57:22.145Z,21.27
2024-02-08T02:57:53.793Z,21.28
2024-02-08T02:58:25.347Z,21.28
2024-02-08T02:58:57.066Z,21.29
2024-02-08T02:59:31.460Z,21.29
2024-02-08T03:00:05.447Z,21.29
2024-02-08T03:00:36.937Z,21.29
2024-02-08T03:01:08.546Z,21.29
2024-02-08T03:01:40.064Z,21.29
2024-02-08T03:02:11.556Z,21.28
2024-02-08T03:02:43.145Z,21.29
2024-02-08T03:03:14.868Z,21.30
2024-02-08T03:03:46.491Z,21.27
2024-02-08T03:04:21.475Z,21.27
2024-02-08T03:04:53.002Z,21.28
2024-02-08T03:05:24.697Z,21.27
2024-02-08T03:05:56.222Z,21.25
2024-02-08T03:06:27.692Z,21.26
2024-02-08T03:06:59.199Z,21.25
2024-02-08T03:07:32.423Z,21.26
2024-02-08T03:08:03.981Z,21.25
2024-02-08T03:08:35.558Z,21.25
2024-02-08T03:09:07.123Z,21.24
2024-02-08T03:09:38.687Z,21.24
2024-02-08T03:10:10.132Z,21.24
2024-02-08T03:10:44.054Z,21.25
2024-02-08T03:11:16.069Z,21.25
2024-02-08T03:11:47.812Z,21.26
2024-02-08T03:12:19.258Z,21.25
2024-02-08T03:12:50.843Z,21.24
2024-02-08T03:13:22.317Z,21.25
2024-02-08T03:13:53.872Z,21.24
2024-02-08T03:14:25.380Z,21.24
2024-02-08T03:14:59.703Z,21.24
2024-02-08T03:15:31.301Z,21.24
2024-02-08T03:16:05.759Z,21.24
2024-02-08T03:16:37.282Z,21.25
2024-02-08T03:17:08.944Z,21.26
2024-02-08T03:17:40.537Z,21.25
2024-02-08T03:18:12.063Z,21.25
2024-02-08T03:18:43.561Z,21.24
2024-02-08T03:19:15.071Z,21.23
2024-02-08T03:19:46.580Z,21.23
2024-02-08T03:20:18.415Z,21.24
2024-02-08T03:20:50.228Z,21.23
2024-02-08T03:21:21.743Z,21.23
2024-02-08T03:21:53.323Z,21.23
2024-02-08T03:22:24.855Z,21.23
2024-02-08T03:22:56.532Z,21.23
2024-02-08T03:23:28.278Z,21.23
2024-02-08T03:23:59.733Z,21.23
2024-02-08T03:24:31.309Z,21.23
2024-02-08T03:25:04.068Z,21.22
2024-02-08T03:25:35.770Z,21.21
2024-02-08T03:26:07.355Z,21.23
2024-02-08T03:26:38.959Z,21.23
2024-02-08T03:27:10.438Z,21.23
2024-02-08T03:27:41.882Z,21.22
2024-02-08T03:28:13.895Z,21.21
2024-02-08T03:28:45.526Z,21.21
2024-02-08T03:29:17.165Z,21.21
2024-02-08T03:29:48.864Z,21.20
2024-02-08T03:30:20.591Z,21.20
2024-02-08T03:30:52.184Z,21.20
2024-02-08T03:31:23.749Z,21.20
2024-02-08T03:31:55.206Z,21.19
2024-02-08T03:32:26.758Z,21.19
2024-02-08T03:32:58.256Z,21.18
2024-02-08T03:33:29.858Z,21.18
2024-02-08T03:34:01.361Z,21.18
2024-02-08T03:34:33.064Z,21.18
2024-02-08T03:35:04.698Z,21.19
2024-02-08T03:35:36.240Z,21.20
2024-02-08T03:36:07.712Z,21.21
2024-02-08T03:36:39.175Z,21.20
2024-02-08T03:37:10.738Z,21.21
2024-02-08T03:37:42.237Z,21.23
2024-02-08T03:38:13.963Z,21.24
2024-02-08T03:38:45.600Z,21.23
2024-02-08T03:39:17.144Z,21.23
2024-02-08T03:39:51.205Z,21.24
2024-02-08T03:40:22.729Z,21.23
2024-02-08T03:40:57.192Z,21.24
2024-02-08T03:41:28.738Z,21.25
2024-02-08T03:42:00.414Z,21.25
2024-02-08T03:42:32.020Z,21.26
2024-02-08T03:43:03.516Z,21.26
2024-02-08T03:43:35.101Z,21.28
2024-02-08T03:44:06.710Z,21.30
2024-02-08T03:44:38.232Z,21.29
2024-02-08T03:45:09.688Z,21.30
2024-02-08T03:45:41.218Z,21.28
2024-02-08T03:46:12.728Z,21.29
2024-02-08T03:46:44.275Z,21.30
2024-02-08T03:47:15.804Z,21.29
2024-02-08T03:47:47.461Z,21.30
2024-02-08T03:48:19.098Z,21.31
2024-02-08T03:48:51.899Z,21.29
2024-02-08T03:49:23.400Z,21.28
2024-02-08T03:49:55.027Z,21.27
2024-02-08T03:50:26.554Z,21.27
2024-02-08T03:51:00.867Z,21.26
2024-02-08T03:51:34.987Z,21.25
2024-02-08T03:52:07.557Z,21.24
2024-02-08T03:52:39.204Z,21.25
2024-02-08T03:53:10.855Z,21.24
2024-02-08T03:53:42.472Z,21.24
2024-02-08T03:54:14.034Z,21.23
2024-02-08T03:54:48.476Z,21.23
2024-02-08T03:55:20.006Z,21.23
2024-02-08T03:55:53.859Z,21.23
2024-02-08T03:56:25.393Z,21.24
2024-02-08T03:56:56.846Z,21.23
2024-02-08T03:57:28.330Z,21.22
2024-02-08T03:57:59.827Z,21.24
2024-02-08T03:58:31.461Z,21.21
2024-02-08T03:59:02.999Z,21.21
2024-02-08T03:59:34.478Z,21.22
2024-02-08T04:00:06.154Z,21.21
2024-02-08T04:00:37.659Z,21.23
2024-02-08T04:01:09.242Z,21.23
2024-02-08T04:01:40.825Z,21.25
2024-02-08T04:02:12.390Z,21.26
2024-02-08T04:02:44.019Z,21.28
2024-02-08T04:03:15.777Z,21.29
2024-02-08T04:03:47.509Z,21.29
2024-02-08T04:04:19.220Z,21.29
2024-02-08T04:04:51.052Z,21.29
2024-02-08T04:05:22.804Z,21.30
2024-02-08T04:05:54.347Z,21.31
2024-02-08T04:06:26.022Z,21.31
2024-02-08T04:07:00.785Z,21.32
2024-02-08T04:07:32.283Z,21.30
2024-02-08T04:08:05.153Z,21.32
2024-02-08T04:08:36.705Z,21.30
2024-02-08T04:09:08.211Z,21.30
2024-02-08T04:09:39.708Z,21.30
2024-02-08T04:10:11.231Z,21.31
2024-02-08T04:10:42.767Z,21.30
2024-02-08T04:11:14.273Z,21.30
2024-02-08T04:11:45.826Z,21.30
2024-02-08T04:12:17.355Z,21.29
2024-02-08T04:12:48.838Z,21.29
2024-02-08T04:13:20.300Z,21.29
2024-02-08T04:13:51.825Z,21.29
2024-02-08T04:14:23.370Z,21.28
2024-02-08T04:14:57.396Z,21.26
2024-02-08T04:15:28.888Z,21.25
2024-02-08T04:16:00.699Z,21.24
2024-02-08T04:16:32.316Z,21.23
2024-02-08T04:17:04.073Z,21.22
2024-02-08T04:17:35.789Z,21.24
2024-02-08T04:18:07.485Z,21.24
2024-02-08T04:18:39.103Z,21.23
2024-02-08T04:19:10.657Z,21.23
2024-02-08T04:19:42.453Z,21.23
2024-02-08T04:20:14.160Z,21.23
2024-02-08T04:20:45.809Z,21.24
2024-02-08T04:21:17.373Z,21.24
2024-02-08T04:21:49.189Z,21.23
2024-02-08T04:22:20.823Z,21.23
2024-02-08T04:22:52.494Z,21.24
2024-02-08T04:23:24.154Z,21.24
2024-02-08T04:23:55.600Z,21.23
2024-02-08T04:24:27.261Z,21.25
2024-02-08T04:24:58.872Z,21.24
2024-02-08T04:25:30.392Z,21.24
2024-02-08T04:26:01.943Z,21.26
2024-02-08T04:26:34.193Z,21.23
2024-02-08T04:27:05.659Z,21.24
2024-02-08T04:27:37.100Z,21.24
2024-02-08T04:28:08.525Z,21.24
2024-02-08T04:28:40.111Z,21.25
2024-02-08T04:29:11.678Z,21.24
2024-02-08T04:29:43.201Z,21.25
2024-02-08T04:30:14.673Z,21.27
2024-02-08T04:30:46.138Z,21.26
2024-02-08T04:31:17.595Z,21.26
2024-02-08T04:31:49.161Z,21.27
2024-02-08T04:32:23.769Z,21.27
2024-02-08T04:32:57.552Z,21.27
2024-02-08T04:33:29.219Z,21.28
2024-02-08T04:34:00.909Z,21.27
2024-02-08T04:34:34.364Z,21.26
2024-02-08T04:35:05.978Z,21.26
2024-02-08T04:35:37.548Z,21.28
2024-02-08T04:36:08.995Z,21.26
2024-02-08T04:36:41.291Z,21.26
2024-02-08T04:37:12.918Z,21.25
2024-02-08T04:37:44.487Z,21.26
2024-02-08T04:38:16.043Z,21.24
2024-02-08T04:38:47.537Z,21.24
2024-02-08T04:39:18.996Z,21.24
2024-02-08T04:39:50.442Z,21.24
2024-02-08T04:40:25.087Z,21.24
2024-02-08T04:40:56.778Z,21.23
2024-02-08T04:41:28.325Z,21.24
2024-02-08T04:41:59.901Z,21.24
2024-02-08T04:42:31.375Z,21.25
2024-02-08T04:43:02.890Z,21.26
2024-02-08T04:43:34.544Z,21.26
2024-02-08T04:44:06.281Z,21.26
2024-02-08T04:44:37.820Z,21.27
2024-02-08T04:45:09.353Z,21.27
2024-02-08T04:45:40.975Z,21.29
2024-02-08T04:46:12.480Z,21.28
2024-02-08T04:46:44.092Z,21.29
2024-02-08T04:47:15.680Z,21.27
2024-02-08T04:47:47.218Z,21.29
2024-02-08T04:48:18.984Z,21.29
2024-02-08T04:48:50.605Z,21.28
2024-02-08T04:49:22.031Z,21.29
2024-02-08T04:49:53.538Z,21.28
2024-02-08T04:50:25.108Z,21.28
2024-02-08T04:50:56.616Z,21.28
2024-02-08T04:51:28.037Z,21.30
2024-02-08T04:51:59.550Z,21.29
2024-02-08T04:52:31.016Z,21.29
2024-02-08T04:53:02.585Z,21.28
2024-02-08T04:53:34.164Z,21.28
2024-02-08T04:54:05.735Z,21.28
2024-02-08T04:54:37.269Z,21.29
2024-02-08T04:55:08.725Z,21.27
2024-02-08T04:55:40.368Z,21.28
2024-02-08T04:56:11.973Z,21.28
2024-02-08T04:56:43.552Z,21.27
2024-02-08T04:57:15.039Z,21.29
2024-02-08T04:57:46.554Z,21.28
2024-02-08T04:58:36.744Z,21.28
2024-02-08T04:59:21.699Z,21.29
2024-02-08T04:59:55.652Z,21.28
2024-02-08T05:00:27.320Z,21.27
2024-02-08T05:00:58.900Z,21.26
2024-02-08T05:01:30.498Z,21.26
2024-02-08T05:02:02.049Z,21.26
2024-02-08T05:02:33.491Z,21.25
2024-02-08T05:03:05.027Z,21.26
2024-02-08T05:03:36.479Z,21.25
2024-02-08T05:04:08.026Z,21.24
2024-02-08T05:04:39.617Z,21.24
2024-02-08T05:05:11.259Z,21.26
2024-02-08T05:05:42.933Z,21.23
2024-02-08T05:06:16.852Z,21.23
2024-02-08T05:06:48.423Z,21.25
2024-02-08T05:07:20.244Z,21.26
2024-02-08T05:07:51.813Z,21.26
2024-02-08T05:08:23.349Z,21.25
2024-02-08T05:08:55.118Z,21.27
2024-02-08T05:09:26.628Z,21.28
2024-02-08T05:10:00.989Z,21.28
2024-02-08T05:10:32.611Z,21.27
2024-02-08T05:11:04.291Z,21.28
2024-02-08T05:11:35.831Z,21.28
2024-02-08T05:12:07.380Z,21.28
2024-02-08T05:12:38.988Z,21.28
2024-02-08T05:13:10.465Z,21.27
2024-02-08T05:13:42.076Z,21.27
2024-02-08T05:14:13.537Z,21.27
2024-02-08T05:14:46.435Z,21.27
2024-02-08T05:15:18.021Z,21.27
2024-02-08T05:15:49.492Z,21.27
2024-02-08T05:16:21.235Z,21.27
2024-02-08T05:16:52.822Z,21.26
2024-02-08T05:17:24.351Z,21.26
2024-02-08T05:17:57.230Z,21.26
2024-02-08T05:18:28.834Z,21.27
2024-02-08T05:19:00.562Z,21.27
2024-02-08T05:19:32.335Z,21.27
2024-02-08T05:20:03.973Z,21.26
2024-02-08T05:20:35.553Z,21.27
2024-02-08T05:21:09.619Z,21.25
2024-02-08T05:21:41.128Z,21.26
2024-02-08T05:22:12.744Z,21.26
2024-02-08T05:22:46.937Z,21.27
2024-02-08T05:23:18.510Z,21.27
2024-02-08T05:23:49.958Z,21.27
2024-02-08T05:24:21.640Z,21.28
2024-02-08T05:24:53.148Z,21.27
2024-02-08T05:25:26.564Z,21.29
2024-02-08T05:25:58.475Z,21.29
2024-02-08T05:26:29.922Z,21.29
2024-02-08T05:27:01.468Z,21.29
2024-02-08T05:27:35.479Z,21.30
2024-02-08T05:28:07.007Z,21.30
2024-02-08T05:28:38.471Z,21.28
2024-02-08T05:29:09.933Z,21.28
2024-02-08T05:29:41.477Z,21.28
2024-02-08T05:30:12.931Z,21.28
2024-02-08T05:30:44.463Z,21.28
2024-02-08T05:31:16.051Z,21.27
2024-02-08T05:31:47.580Z,21.27
2024-02-08T05:32:19.061Z,21.27
2024-02-08T05:32:50.506Z,21.28
2024-02-08T05:33:22.036Z,21.28
2024-02-08T05:33:59.103Z,21.27
2024-02-08T05:34:30.764Z,21.27
2024-02-08T05:35:04.244Z,21.27
2024-02-08T05:35:35.836Z,21.26
2024-02-08T05:36:07.322Z,21.26
2024-02-08T05:36:38.795Z,21.26
2024-02-08T05:37:10.411Z,21.27
2024-02-08T05:37:41.958Z,21.26
2024-02-08T05:38:13.405Z,21.26
2024-02-08T05:38:44.951Z,21.27
2024-02-08T05:39:16.399Z,21.28
2024-02-08T05:39:47.864Z,21.27
2024-02-08T05:40:22.084Z,21.27
2024-02-08T05:40:53.568Z,21.29
2024-02-08T05:41:25.138Z,21.30
2024-02-08T05:41:58.045Z,21.30
2024-02-08T05:42:30.652Z,21.30
2024-02-08T05:43:02.137Z,21.31
2024-02-08T05:43:33.731Z,21.31
2024-02-08T05:44:05.219Z,21.30
2024-02-08T05:44:36.638Z,21.31
2024-02-08T05:45:09.096Z,21.31
2024-02-08T05:45:40.586Z,21.31
2024-02-08T05:46:12.144Z,21.29
2024-02-08T05:46:43.644Z,21.30
2024-02-08T05:47:15.168Z,21.30
2024-02-08T05:47:46.763Z,21.30
2024-02-08T05:48:18.301Z,21.30
2024-02-08T05:48:49.851Z,21.29
2024-02-08T05:49:52.893Z,21.28
2024-02-08T05:50:24.524Z,21.28
2024-02-08T05:50:56.051Z,21.27
2024-02-08T05:51:30.300Z,21.27
2024-02-08T05:52:01.866Z,21.27
2024-02-08T05:52:33.506Z,21.27
2024-02-08T05:53:05.067Z,21.28
2024-02-08T05:53:36.566Z,21.29
2024-02-08T05:54:13.557Z,21.31
2024-02-08T05:54:45.240Z,21.30
2024-02-08T05:55:16.916Z,21.30
2024-02-08T05:55:48.471Z,21.31
2024-02-08T05:56:20.052Z,21.30
2024-02-08T05:56:54.266Z,21.31
2024-02-08T05:57:26.087Z,21.31
2024-02-08T05:57:57.578Z,21.30
2024-02-08T05:58:31.621Z,21.30
2024-02-08T05:59:03.204Z,21.30
2024-02-08T05:59:34.658Z,21.28
2024-02-08T06:00:06.163Z,21.29
2024-02-08T06:00:37.758Z,21.28
2024-02-08T06:01:09.246Z,21.29
2024-02-08T06:01:40.832Z,21.28
2024-02-08T06:02:14.449Z,21.27
2024-02-08T06:02:46.903Z,21.28
2024-02-08T06:03:18.459Z,21.27
2024-02-08T06:03:50.115Z,21.27
2024-02-08T06:04:21.740Z,21.27
2024-02-08T06:04:53.575Z,21.27
2024-02-08T06:05:25.224Z,21.25
2024-02-08T06:05:57.043Z,21.27
2024-02-08T06:06:31.751Z,21.27
2024-02-08T06:07:03.368Z,21.26
2024-02-08T06:07:34.936Z,21.28
2024-02-08T06:08:06.524Z,21.27
2024-02-08T06:08:38.026Z,21.27
2024-02-08T06:09:09.561Z,21.27
2024-02-08T06:09:41.250Z,21.27
2024-02-08T06:10:12.822Z,21.27
2024-02-08T06:10:44.353Z,21.27
2024-02-08T06:11:15.797Z,21.28
2024-02-08T06:11:47.258Z,21.27
2024-02-08T06:12:18.768Z,21.28
2024-02-08T06:12:52.723Z,21.29
2024-02-08T06:13:24.363Z,21.28
2024-02-08T06:13:55.950Z,21.28
2024-02-08T06:14:27.470Z,21.28
2024-02-08T06:14:58.959Z,21.28
2024-02-08T06:15:30.424Z,21.29
2024-02-08T06:16:02.014Z,21.29
2024-02-08T06:16:33.518Z,21.28
2024-02-08T06:17:05.062Z,21.29
2024-02-08T06:17:36.608Z,21.28
2024-02-08T06:18:12.356Z,21.29
2024-02-08T06:18:44.065Z,21.29
2024-02-08T06:19:18.132Z,21.29
2024-02-08T06:19:49.671Z,21.29
2024-02-08T06:20:21.129Z,21.29
2024-02-08T06:20:52.616Z,21.29
2024-02-08T06:21:24.077Z,21.27
2024-02-08T06:21:55.588Z,21.27
2024-02-08T06:22:27.350Z,21.26
2024-02-08T06:22:58.935Z,21.28
2024-02-08T06:23:32.701Z,21.27
2024-02-08T06:24:04.227Z,21.28
2024-02-08T06:24:35.708Z,21.27
2024-02-08T06:25:07.236Z,21.27
2024-02-08T06:25:38.835Z,21.27
2024-02-08T06:26:11.179Z,21.27
2024-02-08T06:26:43.244Z,21.27
2024-02-08T06:27:15.015Z,21.28
2024-02-08T06:27:46.555Z,21.29
2024-02-08T06:28:18.135Z,21.29
2024-02-08T06:28:49.788Z,21.29
2024-02-08T06:29:21.289Z,21.27
2024-02-08T06:29:52.884Z,21.28
2024-02-08T06:30:24.451Z,21.29
2024-02-08T06:30:55.980Z,21.29
2024-02-08T06:31:27.716Z,21.28
2024-02-08T06:31:59.274Z,21.29
2024-02-08T06:32:30.853Z,21.29
2024-02-08T06:33:02.423Z,21.29
2024-02-08T06:33:34.003Z,21.29
2024-02-08T06:34:05.853Z,21.28
2024-02-08T06:34:37.790Z,21.29
2024-02-08T06:35:09.353Z,21.29
2024-02-08T06:35:40.945Z,21.29
2024-02-08T06:36:12.401Z,21.29
2024-02-08T06:36:44.033Z,21.29
2024-02-08T06:37:15.702Z,21.29
2024-02-08T06:37:47.205Z,21.30
2024-02-08T06:38:18.725Z,21.29
2024-02-08T06:38:50.198Z,21.28
2024-02-08T06:39:21.967Z,21.29
2024-02-08T06:39:53.581Z,21.29
2024-02-08T06:40:25.170Z,21.29
2024-02-08T06:40:56.721Z,21.28
2024-02-08T06:41:28.215Z,21.28
2024-02-08T06:41:59.784Z,21.29
2024-02-08T06:42:31.369Z,21.31
2024-02-08T06:43:04.874Z,21.29
2024-02-08T06:43:36.453Z,21.29
2024-02-08T06:44:07.994Z,21.29
2024-02-08T06:44:39.513Z,21.30
2024-02-08T06:45:10.996Z,21.31
2024-02-08T06:45:44.735Z,21.30
2024-02-08T06:46:16.273Z,21.30
2024-02-08T06:46:47.750Z,21.30
2024-02-08T06:47:19.343Z,21.29
2024-02-08T06:47:50.908Z,21.30
2024-02-08T06:48:25.606Z,21.30
2024-02-08T06:48:57.166Z,21.29
2024-02-08T06:49:28.769Z,21.30
2024-02-08T06:50:00.405Z,21.29
2024-02-08T06:50:33.826Z,21.28
2024-02-08T06:51:05.250Z,21.28
2024-02-08T06:51:36.741Z,21.30